Time;durP1;ratioP1;P1;durP2;ratioP2;P2;SDS_P1;SDS_P2;PMS_P1;PMS_P2;Temp;Humidity;BMP_temperature;BMP_pressure;BME280_temperature;BME280_humidity;BME280_pressure;Samples;Min_cycle;Max_cycle;Signal;HPM_P1;HPM_P2
2022/12/12 00:00:50;;;;;;;51.83;21.10;;;-1.20;99.90;;;;;;5052705;28;20457;-69
2022/12/12 00:03:17;;;;;;;55.70;23.97;;;-1.20;99.90;;;;;;5052758;28;20455;-69
2022/12/12 00:05:45;;;;;;;53.53;21.90;;;-1.20;99.90;;;;;;5052231;28;20493;-69
2022/12/12 00:08:12;;;;;;;53.23;22.03;;;-1.20;99.90;;;;;;5052470;28;20453;-69
2022/12/12 00:10:39;;;;;;;66.77;23.83;;;-1.20;99.90;;;;;;5052117;28;20462;-69
2022/12/12 00:13:05;;;;;;;58.60;24.17;;;-1.30;99.90;;;;;;5052766;28;20461;-69
2022/12/12 00:15:33;;;;;;;53.90;24.27;;;-1.30;99.90;;;;;;5051888;28;21161;-69
2022/12/12 00:18:00;;;;;;;58.23;24.03;;;-1.20;99.90;;;;;;5052638;28;20465;-69
2022/12/12 00:20:27;;;;;;;53.80;23.20;;;-1.20;99.90;;;;;;5052578;28;20461;-68
2022/12/12 00:22:53;;;;;;;58.57;24.67;;;-1.20;99.90;;;;;;5052591;28;20455;-69
2022/12/12 00:25:20;;;;;;;57.43;23.03;;;-1.10;99.90;;;;;;5052110;28;20985;-69
2022/12/12 00:27:47;;;;;;;68.97;23.87;;;-1.10;99.90;;;;;;5051940;28;20487;-69
2022/12/12 00:30:13;;;;;;;68.47;23.73;;;-1.10;99.90;;;;;;5052307;28;20597;-69
2022/12/12 00:32:41;;;;;;;56.83;23.27;;;-1.10;99.90;;;;;;5052195;28;20450;-69
2022/12/12 00:35:08;;;;;;;57.20;23.50;;;-1.10;99.90;;;;;;5052303;28;20477;-68
2022/12/12 00:37:35;;;;;;;59.13;25.50;;;-1.00;99.90;;;;;;5051427;28;20446;-69
2022/12/12 00:40:02;;;;;;;64.27;25.77;;;-1.00;99.90;;;;;;5051849;28;20460;-69
2022/12/12 00:42:29;;;;;;;61.60;25.40;;;-1.00;99.90;;;;;;5051535;28;20493;-69
2022/12/12 00:44:56;;;;;;;52.97;23.50;;;-1.00;99.90;;;;;;5052336;28;20482;-69
2022/12/12 00:47:22;;;;;;;52.57;23.87;;;-1.00;99.90;;;;;;5051832;28;20495;-69
2022/12/12 00:49:50;;;;;;;56.77;24.30;;;-1.00;99.90;;;;;;5052214;28;20442;-69
2022/12/12 00:52:17;;;;;;;58.90;24.37;;;-1.00;99.90;;;;;;5051446;28;20451;-69
2022/12/12 00:54:44;;;;;;;70.63;28.20;;;-1.10;99.90;;;;;;5051119;28;20535;-69
2022/12/12 00:57:10;;;;;;;73.07;26.47;;;-1.10;99.90;;;;;;5051189;28;20485;-69
2022/12/12 00:59:37;;;;;;;75.43;26.57;;;-1.20;99.90;;;;;;5051727;28;20468;-69
2022/12/12 01:02:04;;;;;;;63.20;26.60;;;-1.20;99.90;;;;;;5051807;28;20448;-68
2022/12/12 01:04:30;;;;;;;79.47;27.27;;;-1.10;99.90;;;;;;5051548;28;20476;-69
2022/12/12 01:06:58;;;;;;;61.30;27.13;;;-1.10;99.90;;;;;;5051395;28;20490;-69
2022/12/12 01:09:25;;;;;;;66.80;27.33;;;-1.10;99.90;;;;;;5050416;28;20865;-69
2022/12/12 01:11:52;;;;;;;68.57;28.00;;;-1.10;99.90;;;;;;5051031;28;20516;-69
2022/12/12 01:14:18;;;;;;;64.47;26.30;;;-1.00;99.90;;;;;;5051535;28;20847;-69
2022/12/12 01:16:45;;;;;;;59.93;25.17;;;-1.00;99.90;;;;;;5051526;28;20516;-69
2022/12/12 01:19:12;;;;;;;64.57;28.27;;;-1.00;99.90;;;;;;5051362;28;20536;-69
2022/12/12 01:21:38;;;;;;;71.83;28.70;;;-1.10;99.90;;;;;;5049773;28;20455;-69
2022/12/12 01:24:07;;;;;;;66.90;26.70;;;-1.10;99.90;;;;;;5051565;28;20482;-69
2022/12/12 01:26:34;;;;;;;72.57;27.17;;;-1.10;99.90;;;;;;5051245;28;20486;-69
2022/12/12 01:29:01;;;;;;;69.83;28.40;;;-1.10;99.90;;;;;;5051548;28;20451;-69
2022/12/12 01:31:28;;;;;;;65.83;26.30;;;-1.10;99.90;;;;;;5051050;28;20462;-69
2022/12/12 01:33:55;;;;;;;68.27;27.07;;;-1.10;99.90;;;;;;5051210;28;20458;-69
2022/12/12 01:36:23;;;;;;;68.10;28.67;;;-1.10;99.90;;;;;;5050928;28;20897;-69
2022/12/12 01:38:53;;;;;;;73.33;27.67;;;-1.10;99.90;;;;;;5050999;28;20464;-69
2022/12/12 01:41:21;;;;;;;72.37;26.67;;;-1.00;99.90;;;;;;5050755;28;20461;-69
2022/12/12 01:43:48;;;;;;;77.37;28.20;;;-1.00;99.90;;;;;;5050805;28;20805;-69
2022/12/12 01:46:34;;;;;;;62.43;26.07;;;-1.00;99.90;;;;;;5050923;28;20489;-69
2022/12/12 01:49:06;;;;;;;73.40;26.77;;;-1.00;99.90;;;;;;5051351;28;20457;-69
2022/12/12 01:51:33;;;;;;;70.77;28.30;;;-1.00;99.90;;;;;;5050792;28;20458;-69
2022/12/12 01:54:05;;;;;;;64.90;27.27;;;-1.00;99.90;;;;;;5050898;28;20536;-69
2022/12/12 01:56:35;;;;;;;67.77;28.63;;;-1.00;99.90;;;;;;5050942;28;20459;-69
2022/12/12 01:59:04;;;;;;;67.53;28.87;;;-1.00;99.90;;;;;;5050801;28;20470;-69
2022/12/12 02:01:32;;;;;;;77.07;29.60;;;-1.10;99.90;;;;;;5050838;28;20463;-69
2022/12/12 02:04:00;;;;;;;88.27;27.90;;;-1.10;99.90;;;;;;5050801;28;20808;-69
2022/12/12 02:06:28;;;;;;;66.90;26.93;;;-1.20;99.90;;;;;;5050407;28;21080;-69
2022/12/12 02:08:59;;;;;;;71.43;27.97;;;-1.20;99.90;;;;;;5054439;28;20516;-69
2022/12/12 02:11:27;;;;;;;74.93;28.17;;;-1.20;99.90;;;;;;5054513;28;21366;-69
2022/12/12 02:13:56;;;;;;;69.10;27.40;;;-1.10;99.90;;;;;;5054646;28;20455;-69
2022/12/12 02:16:32;;;;;;;71.40;27.67;;;-1.10;99.90;;;;;;5054740;28;20446;-69
2022/12/12 02:19:09;;;;;;;65.97;27.40;;;-1.10;99.90;;;;;;5053904;28;20454;-69
2022/12/12 02:21:44;;;;;;;72.60;27.47;;;-1.10;99.90;;;;;;5054689;28;20941;-69
2022/12/12 02:24:39;;;;;;;67.90;27.90;;;-1.00;99.90;;;;;;5054820;28;20833;-69
2022/12/12 02:27:57;;;;;;;68.13;27.80;;;-1.00;99.90;;;;;;5054719;28;20482;-69
2022/12/12 02:30:32;;;;;;;74.47;26.93;;;-0.90;99.90;;;;;;5012276;28;20472;-69
2022/12/12 02:33:18;;;;;;;73.87;27.10;;;-0.90;99.90;;;;;;5005078;28;20925;-69
2022/12/12 02:35:58;;;;;;;63.20;27.17;;;-0.90;99.90;;;;;;5038294;28;20869;-69
2022/12/12 02:38:29;;;;;;;76.57;28.80;;;-0.90;99.90;;;;;;5054013;28;20452;-69
2022/12/12 02:41:06;;;;;;;63.83;28.33;;;-0.90;99.90;;;;;;5054018;28;20463;-69
2022/12/12 02:43:39;;;;;;;66.80;26.10;;;-0.90;99.90;;;;;;5054522;28;20446;-69
2022/12/12 02:46:11;;;;;;;63.50;26.67;;;-1.00;99.90;;;;;;5053884;28;20475;-69
2022/12/12 02:48:48;;;;;;;65.23;28.30;;;-1.00;99.90;;;;;;5054044;28;20454;-69
2022/12/12 02:51:17;;;;;;;81.47;28.27;;;-1.00;99.90;;;;;;5054214;28;20524;-69
2022/12/12 02:53:44;;;;;;;79.17;27.23;;;-1.00;99.90;;;;;;5053972;28;20452;-69
2022/12/12 02:56:46;;;;;;;68.37;27.40;;;-1.00;99.90;;;;;;5053693;28;20516;-69
2022/12/12 02:59:17;;;;;;;78.03;28.43;;;-1.00;99.90;;;;;;5053699;28;20927;-69
2022/12/12 03:01:54;;;;;;;84.77;28.60;;;-0.90;99.90;;;;;;5054045;28;20499;-69
2022/12/12 03:10:19;;;;;;;72.70;28.57;;;-0.90;99.90;;;;;;5052222;28;20439;-69
2022/12/12 03:12:57;;;;;;;64.67;28.17;;;-1.00;99.90;;;;;;5052455;28;20509;-69
2022/12/12 03:15:30;;;;;;;61.83;26.03;;;-1.00;99.90;;;;;;5053502;28;20476;-69
2022/12/12 03:18:05;;;;;;;69.00;26.80;;;-1.00;99.90;;;;;;5053814;28;20611;-69
2022/12/12 03:20:39;;;;;;;69.17;26.77;;;-1.00;99.90;;;;;;5050381;28;20466;-69
2022/12/12 03:23:13;;;;;;;78.50;28.07;;;-1.10;99.90;;;;;;5053803;28;20452;-69
2022/12/12 03:25:47;;;;;;;68.10;27.70;;;-1.10;99.90;;;;;;5052988;28;20475;-69
2022/12/12 03:28:20;;;;;;;71.77;27.13;;;-1.10;99.90;;;;;;5053098;28;20494;-69
2022/12/12 03:30:54;;;;;;;77.83;29.17;;;-1.20;99.90;;;;;;5052883;28;20459;-69
2022/12/12 03:33:27;;;;;;;70.47;27.43;;;-1.20;99.90;;;;;;5053611;28;20450;-69
2022/12/12 03:36:00;;;;;;;67.17;26.87;;;-1.20;99.90;;;;;;5053401;28;20477;-69
2022/12/12 03:38:34;;;;;;;70.73;26.97;;;-1.20;99.90;;;;;;5053096;28;20512;-69
2022/12/12 03:41:05;;;;;;;67.53;26.83;;;-1.20;99.90;;;;;;5053256;28;20454;-69
2022/12/12 03:43:37;;;;;;;70.50;28.37;;;-1.30;99.90;;;;;;5052789;28;20967;-68
2022/12/12 03:46:09;;;;;;;77.53;28.40;;;-1.30;99.90;;;;;;5052754;28;20474;-68
2022/12/12 03:48:41;;;;;;;66.17;27.67;;;-1.30;99.90;;;;;;5052901;28;20493;-69
2022/12/12 03:51:14;;;;;;;64.93;26.67;;;-1.20;99.90;;;;;;5052648;28;20526;-68
2022/12/12 03:53:47;;;;;;;75.17;27.70;;;-1.30;99.90;;;;;;5053245;28;20459;-68
2022/12/12 03:56:21;;;;;;;71.03;29.23;;;-1.30;99.90;;;;;;5052589;28;20497;-68
2022/12/12 03:58:52;;;;;;;76.10;28.03;;;-1.30;99.90;;;;;;5052486;28;20451;-68
2022/12/12 04:01:23;;;;;;;73.60;28.67;;;-1.30;99.90;;;;;;5052532;28;20447;-68
2022/12/12 04:03:56;;;;;;;69.43;27.57;;;-1.20;99.90;;;;;;5052406;28;20995;-68
2022/12/12 04:06:32;;;;;;;73.57;28.60;;;-1.20;99.90;;;;;;5052972;28;20453;-68
2022/12/12 04:14:58;;;;;;;66.03;28.03;;;-1.10;99.90;;;;;;5049585;28;20541;-69
2022/12/12 04:17:30;;;;;;;72.03;27.90;;;-1.10;99.90;;;;;;5052361;28;20443;-68
2022/12/12 04:23:15;;;;;;;70.27;25.80;;;-1.10;99.90;;;;;;5052212;28;20917;-68
2022/12/12 04:28:34;;;;;;;73.80;27.70;;;-1.10;99.90;;;;;;5051615;28;20493;-68
2022/12/12 04:31:03;;;;;;;64.90;26.20;;;-1.10;99.90;;;;;;5051833;28;20869;-69
2022/12/12 04:33:37;;;;;;;62.60;25.77;;;-1.10;99.90;;;;;;5052197;28;20992;-68
2022/12/12 04:36:06;;;;;;;60.37;26.37;;;-1.10;99.90;;;;;;5051983;28;20520;-68
2022/12/12 04:38:35;;;;;;;69.23;28.20;;;-1.10;99.90;;;;;;5051652;28;20447;-68
2022/12/12 04:41:04;;;;;;;65.37;26.27;;;-1.00;99.90;;;;;;5044276;28;20523;-68
2022/12/12 04:43:34;;;;;;;77.73;28.07;;;-1.10;99.90;;;;;;5051935;28;20454;-69
2022/12/12 04:46:05;;;;;;;62.27;26.10;;;-1.10;99.90;;;;;;5043983;28;20466;-68
2022/12/12 04:48:36;;;;;;;63.13;26.73;;;-1.10;99.90;;;;;;5047524;28;20478;-68
2022/12/12 04:51:04;;;;;;;67.43;27.27;;;-1.10;99.90;;;;;;5052040;28;20462;-68
2022/12/12 04:53:37;;;;;;;65.60;26.67;;;-1.10;99.90;;;;;;5051894;28;20485;-68
2022/12/12 04:56:09;;;;;;;59.97;26.03;;;-1.10;99.90;;;;;;5051760;28;20474;-68
2022/12/12 04:58:36;;;;;;;62.73;25.60;;;-1.10;99.90;;;;;;5051518;28;20453;-68
2022/12/12 05:01:08;;;;;;;72.03;27.80;;;-1.00;99.90;;;;;;5051652;28;20455;-69
2022/12/12 05:03:41;;;;;;;73.03;27.63;;;-1.00;99.90;;;;;;5050820;28;20455;-69
2022/12/12 05:06:11;;;;;;;66.50;27.33;;;-1.00;99.90;;;;;;5051951;28;20444;-69
2022/12/12 05:08:42;;;;;;;63.10;27.07;;;-1.00;99.90;;;;;;5051047;28;20901;-69
2022/12/12 05:11:09;;;;;;;69.13;27.83;;;-1.00;99.90;;;;;;5051184;28;20507;-69
2022/12/12 05:13:38;;;;;;;60.80;26.27;;;-1.10;99.90;;;;;;5050579;28;20456;-68
2022/12/12 05:16:12;;;;;;;65.90;27.80;;;-1.10;99.90;;;;;;5051478;28;20488;-68
2022/12/12 05:18:39;;;;;;;62.07;27.80;;;-1.00;99.90;;;;;;5051804;28;20457;-68
2022/12/12 05:21:06;;;;;;;71.20;28.53;;;-1.10;99.90;;;;;;5051631;28;20451;-68
2022/12/12 05:23:32;;;;;;;68.67;27.80;;;-1.10;99.90;;;;;;5051161;28;20486;-68
2022/12/12 05:26:06;;;;;;;74.30;29.33;;;-1.10;99.90;;;;;;5050453;28;20475;-68
2022/12/12 05:28:33;;;;;;;68.37;27.97;;;-1.00;99.90;;;;;;5051017;28;20483;-68
2022/12/12 05:30:59;;;;;;;80.70;30.70;;;-1.00;99.90;;;;;;5051045;28;20490;-68
2022/12/12 05:33:26;;;;;;;62.50;28.03;;;-1.00;99.90;;;;;;5051021;28;20827;-68
2022/12/12 05:35:53;;;;;;;68.33;27.20;;;-0.90;99.90;;;;;;5051121;28;20503;-69
2022/12/12 05:38:19;;;;;;;68.40;27.50;;;-0.90;99.90;;;;;;5051056;28;20453;-69
2022/12/12 05:40:46;;;;;;;63.00;26.50;;;-0.90;99.90;;;;;;5051208;28;20459;-68
2022/12/12 05:43:14;;;;;;;59.17;27.63;;;-0.90;99.90;;;;;;5050507;28;20460;-68
2022/12/12 05:45:41;;;;;;;66.30;26.07;;;-0.80;99.90;;;;;;5048917;28;20477;-69
2022/12/12 05:48:07;;;;;;;71.23;27.47;;;-0.80;99.90;;;;;;5051158;28;20488;-68
2022/12/12 05:50:34;;;;;;;68.17;27.67;;;-0.80;99.90;;;;;;5050790;28;20921;-69
2022/12/12 05:53:01;;;;;;;65.57;26.53;;;-0.80;99.90;;;;;;5050193;28;20449;-68
2022/12/12 05:55:27;;;;;;;67.80;28.30;;;-0.80;99.90;;;;;;5050774;28;20483;-69
2022/12/12 05:57:54;;;;;;;66.57;27.00;;;-0.80;99.90;;;;;;5050998;28;20983;-69
2022/12/12 06:00:22;;;;;;;64.23;28.00;;;-0.80;99.90;;;;;;5050323;28;20794;-68
2022/12/12 06:02:49;;;;;;;60.30;27.20;;;-0.80;99.90;;;;;;5050080;28;20460;-68
2022/12/12 06:05:16;;;;;;;69.40;27.97;;;-0.80;99.90;;;;;;5046830;28;21009;-69
2022/12/12 06:07:43;;;;;;;69.73;29.03;;;-0.80;99.90;;;;;;5050379;28;20493;-69
2022/12/12 06:10:10;;;;;;;85.83;33.10;;;-0.90;99.90;;;;;;5046197;28;20455;-69
2022/12/12 06:12:36;;;;;;;67.10;29.90;;;-0.90;99.90;;;;;;5050697;28;20468;-69
2022/12/12 06:15:04;;;;;;;82.07;32.50;;;-0.90;99.90;;;;;;5050811;28;20471;-69
2022/12/12 06:17:32;;;;;;;81.20;31.10;;;-0.90;99.90;;;;;;5050269;28;20451;-69
2022/12/12 06:19:58;;;;;;;79.73;30.60;;;-1.00;99.90;;;;;;5050342;28;21217;-68
2022/12/12 06:22:25;;;;;;;84.10;28.93;;;-1.00;99.90;;;;;;5050755;28;20453;-69
2022/12/12 06:24:52;;;;;;;88.77;29.07;;;-1.00;99.90;;;;;;5050829;28;20478;-69
2022/12/12 06:27:18;;;;;;;79.57;29.00;;;-1.00;99.90;;;;;;5050528;28;20451;-69
2022/12/12 06:29:45;;;;;;;79.53;29.47;;;-1.00;99.90;;;;;;5050559;28;20458;-69
2022/12/12 06:32:12;;;;;;;76.43;28.30;;;-1.00;99.90;;;;;;5049965;28;20463;-69
2022/12/12 06:34:40;;;;;;;80.47;28.47;;;-1.10;99.90;;;;;;5049866;28;21067;-69
2022/12/12 06:37:07;;;;;;;79.80;29.10;;;-1.10;99.90;;;;;;5042539;28;20454;-69
2022/12/12 06:39:34;;;;;;;84.23;28.77;;;-1.10;99.90;;;;;;5050086;28;20460;-69
2022/12/12 06:42:01;;;;;;;85.47;30.97;;;-1.10;99.90;;;;;;5050177;28;20488;-69
2022/12/12 06:44:27;;;;;;;78.30;31.27;;;-1.10;99.90;;;;;;5050111;28;20466;-70
2022/12/12 06:46:54;;;;;;;74.23;30.77;;;-1.10;99.90;;;;;;5048823;28;20454;-69
2022/12/12 06:49:21;;;;;;;90.97;33.47;;;-1.10;99.90;;;;;;5049843;28;20492;-70
2022/12/12 06:51:49;;;;;;;153.30;70.30;;;-1.10;99.90;;;;;;5049936;28;20454;-70
2022/12/12 06:54:17;;;;;;;97.77;36.40;;;-1.10;99.90;;;;;;5052972;28;20505;-69
2022/12/12 06:56:44;;;;;;;104.90;39.47;;;-1.10;99.90;;;;;;5052208;28;20460;-69
2022/12/12 06:59:12;;;;;;;106.27;39.17;;;-1.00;99.90;;;;;;5049009;28;20458;-69
2022/12/12 07:01:39;;;;;;;84.67;31.13;;;-1.10;99.90;;;;;;5045167;28;20454;-69
2022/12/12 07:04:06;;;;;;;84.10;30.80;;;-1.10;99.90;;;;;;5048693;28;21067;-70
2022/12/12 07:06:33;;;;;;;83.07;31.40;;;-1.20;99.90;;;;;;5049770;28;20546;-69
2022/12/12 07:09:01;;;;;;;85.07;31.40;;;-1.20;99.90;;;;;;5048566;28;20490;-66
2022/12/12 07:11:28;;;;;;;86.90;31.13;;;-1.30;99.90;;;;;;5049458;28;20955;-66
2022/12/12 07:13:56;;;;;;;85.27;31.13;;;-1.30;99.90;;;;;;5048609;28;20969;-66
2022/12/12 07:16:23;;;;;;;81.87;32.77;;;-1.30;99.90;;;;;;5049049;28;20496;-70
2022/12/12 07:18:50;;;;;;;92.57;33.23;;;-1.30;99.90;;;;;;5049298;28;20461;-68
2022/12/12 07:21:19;;;;;;;92.13;35.43;;;-1.20;99.90;;;;;;5048444;28;20956;-68
2022/12/12 07:23:46;;;;;;;80.67;30.60;;;-1.10;99.90;;;;;;5048840;28;20460;-69
2022/12/12 07:26:17;;;;;;;83.00;32.07;;;-1.10;99.90;;;;;;5048828;28;20987;-71
2022/12/12 07:28:44;;;;;;;88.80;32.53;;;-1.00;99.90;;;;;;5048291;28;20572;-68
2022/12/12 07:31:12;;;;;;;97.33;34.53;;;-1.00;99.90;;;;;;5047808;28;20462;-68
2022/12/12 07:33:40;;;;;;;85.13;32.30;;;-1.00;99.90;;;;;;5049235;28;20488;-68
2022/12/12 07:36:07;;;;;;;85.80;32.50;;;-1.00;99.90;;;;;;5048141;28;20571;-68
2022/12/12 07:38:35;;;;;;;100.53;32.17;;;-1.00;99.90;;;;;;5048928;28;20947;-68
2022/12/12 07:41:04;;;;;;;92.13;33.13;;;-1.10;99.90;;;;;;5048613;28;21790;-70
2022/12/12 07:43:33;;;;;;;89.80;33.90;;;-1.10;99.90;;;;;;5048993;28;20455;-68
2022/12/12 07:46:00;;;;;;;90.90;34.60;;;-1.10;99.90;;;;;;5048875;28;20520;-68
2022/12/12 07:48:27;;;;;;;83.30;33.80;;;-1.10;99.90;;;;;;5048635;28;20480;-69
2022/12/12 07:50:54;;;;;;;100.90;36.83;;;-1.00;99.90;;;;;;5048578;28;20455;-68
2022/12/12 07:53:21;;;;;;;92.97;34.77;;;-1.00;99.90;;;;;;5049365;28;20462;-69
2022/12/12 07:55:47;;;;;;;87.50;31.70;;;-1.00;99.90;;;;;;5047949;28;20529;-72
2022/12/12 07:58:14;;;;;;;87.50;33.57;;;-1.00;99.90;;;;;;5048667;28;20444;-69
2022/12/12 08:00:43;;;;;;;95.77;37.40;;;-0.90;99.90;;;;;;5049039;28;21220;-69
2022/12/12 08:03:09;;;;;;;87.33;34.37;;;-0.90;99.90;;;;;;5047950;28;20459;-69
2022/12/12 08:05:39;;;;;;;86.30;33.87;;;-0.90;99.90;;;;;;5048128;28;20471;-69
2022/12/12 08:08:06;;;;;;;90.63;33.10;;;-0.90;99.90;;;;;;5048880;28;20522;-68
2022/12/12 08:10:32;;;;;;;94.83;34.20;;;-0.80;99.90;;;;;;5047480;28;20479;-67
2022/12/12 08:12:59;;;;;;;102.33;35.93;;;-0.90;99.90;;;;;;5047463;28;20460;-68
2022/12/12 08:15:26;;;;;;;90.50;33.20;;;-0.90;99.90;;;;;;5048522;28;20469;-68
2022/12/12 08:17:54;;;;;;;88.00;33.37;;;-0.90;99.90;;;;;;5048128;28;20457;-68
2022/12/12 08:20:21;;;;;;;88.70;34.60;;;-0.90;99.90;;;;;;5047850;28;20453;-69
2022/12/12 08:22:48;;;;;;;94.60;33.50;;;-0.80;99.90;;;;;;5048232;28;20594;-68
2022/12/12 08:25:15;;;;;;;76.87;26.83;;;-0.70;99.90;;;;;;5047613;28;20473;-68
2022/12/12 08:27:42;;;;;;;88.60;32.93;;;-0.80;99.90;;;;;;5047661;28;20488;-68
2022/12/12 08:30:09;;;;;;;92.53;31.40;;;-0.70;99.90;;;;;;5047449;28;20490;-69
2022/12/12 08:32:36;;;;;;;86.80;32.53;;;-0.70;99.90;;;;;;5048092;28;20460;-68
2022/12/12 08:35:05;;;;;;;91.70;31.63;;;-0.80;99.90;;;;;;5047510;28;20510;-69
2022/12/12 08:37:32;;;;;;;85.77;32.37;;;-0.80;99.90;;;;;;5047418;28;21179;-71
2022/12/12 08:39:58;;;;;;;91.23;32.30;;;-0.70;99.90;;;;;;5047522;28;20456;-71
2022/12/12 08:42:25;;;;;;;87.37;32.93;;;-0.70;99.90;;;;;;5047038;28;20462;-69
2022/12/12 08:44:52;;;;;;;83.20;30.40;;;-0.60;99.90;;;;;;5047223;28;20487;-69
2022/12/12 08:47:19;;;;;;;89.80;32.80;;;-0.60;99.90;;;;;;5047611;28;20454;-68
2022/12/12 08:49:45;;;;;;;97.47;33.37;;;-0.60;99.90;;;;;;5047468;28;20486;-69
2022/12/12 08:52:13;;;;;;;82.70;33.63;;;-0.60;99.90;;;;;;5046691;28;20462;-69
2022/12/12 08:54:40;;;;;;;87.97;32.60;;;-0.50;99.90;;;;;;5046609;28;20908;-68
2022/12/12 08:57:07;;;;;;;86.23;30.80;;;-0.50;99.90;;;;;;5047280;28;20455;-68
2022/12/12 08:59:33;;;;;;;86.80;32.77;;;-0.50;99.90;;;;;;5047894;28;20501;-69
2022/12/12 09:02:00;;;;;;;84.77;31.10;;;-0.50;99.90;;;;;;5046774;28;20457;-68
2022/12/12 09:04:27;;;;;;;87.13;34.90;;;-0.40;99.90;;;;;;5047264;28;20521;-68
2022/12/12 09:06:54;;;;;;;85.27;31.37;;;-0.50;99.90;;;;;;5047203;28;20454;-68
2022/12/12 09:09:23;;;;;;;88.63;32.67;;;-0.40;99.90;;;;;;5046642;28;20593;-68
2022/12/12 09:11:50;;;;;;;92.13;33.27;;;-0.40;99.90;;;;;;5046894;28;20986;-68
2022/12/12 09:14:17;;;;;;;94.37;32.57;;;-0.30;99.90;;;;;;5047130;28;20499;-68
2022/12/12 09:16:44;;;;;;;88.67;32.43;;;-0.20;99.90;;;;;;5045210;28;20482;-69
2022/12/12 09:19:10;;;;;;;77.43;29.33;;;0.00;99.90;;;;;;5045694;28;20467;-69
2022/12/12 09:21:37;;;;;;;73.47;28.80;;;0.20;99.90;;;;;;5047460;28;20457;-69
2022/12/12 09:24:04;;;;;;;85.00;32.63;;;0.40;99.90;;;;;;5045753;28;21507;-68
2022/12/12 09:26:32;;;;;;;80.83;32.70;;;0.60;99.90;;;;;;5045254;28;20822;-68
2022/12/12 09:28:58;;;;;;;87.50;34.70;;;0.70;99.90;;;;;;5046005;28;20482;-69
2022/12/12 09:31:25;;;;;;;77.70;29.83;;;0.80;99.90;;;;;;5046177;28;20467;-68
2022/12/12 09:33:53;;;;;;;84.43;31.83;;;1.00;99.90;;;;;;5044888;28;20508;-69
2022/12/12 09:36:19;;;;;;;71.60;28.80;;;1.30;99.90;;;;;;5045783;28;20982;-69
2022/12/12 09:38:46;;;;;;;79.00;31.20;;;1.60;99.90;;;;;;5046364;28;20459;-70
2022/12/12 09:41:16;;;;;;;78.97;28.03;;;1.90;99.90;;;;;;5046304;28;20478;-70
2022/12/12 09:43:51;;;;;;;69.80;28.50;;;2.10;99.90;;;;;;5047368;28;21069;-70
2022/12/12 09:46:29;;;;;;;68.20;28.53;;;2.20;99.90;;;;;;5046222;28;20441;-70
2022/12/12 09:49:03;;;;;;;77.50;28.60;;;2.40;99.90;;;;;;5046567;28;20482;-70
2022/12/12 09:51:30;;;;;;;68.37;25.60;;;2.50;99.90;;;;;;5046366;28;20472;-70
2022/12/12 09:53:56;;;;;;;65.93;26.20;;;2.70;99.90;;;;;;5045898;28;20499;-70
2022/12/12 09:56:29;;;;;;;73.90;27.23;;;2.60;99.90;;;;;;5046754;28;20457;-70
2022/12/12 09:59:06;;;;;;;66.07;25.70;;;2.70;99.90;;;;;;5047084;28;20820;-69
2022/12/12 10:01:38;;;;;;;66.67;28.10;;;2.70;99.90;;;;;;5045925;28;20482;-70
2022/12/12 10:04:15;;;;;;;59.27;26.03;;;2.60;99.90;;;;;;5047086;28;20519;-69
2022/12/12 10:06:47;;;;;;;62.50;25.43;;;2.70;99.90;;;;;;5046598;28;20562;-70
2022/12/12 10:09:34;;;;;;;69.37;26.40;;;2.80;99.90;;;;;;5046618;28;21009;-70
2022/12/12 10:12:05;;;;;;;72.13;28.73;;;2.90;99.90;;;;;;5046023;28;20453;-71
2022/12/12 10:14:37;;;;;;;53.87;23.23;;;2.90;99.90;;;;;;5046868;28;20484;-70
2022/12/12 10:17:11;;;;;;;60.33;24.47;;;2.90;99.90;;;;;;5047083;28;20449;-70
2022/12/12 10:19:47;;;;;;;59.50;23.47;;;3.10;99.90;;;;;;5047267;28;20445;-70
2022/12/12 10:22:20;;;;;;;54.47;23.57;;;3.20;99.90;;;;;;5045822;28;20465;-71
2022/12/12 10:24:52;;;;;;;61.00;24.87;;;3.20;99.90;;;;;;5046945;28;20542;-70
2022/12/12 10:27:19;;;;;;;53.90;23.17;;;3.00;99.90;;;;;;5046536;28;20461;-71
2022/12/12 10:29:48;;;;;;;59.33;26.50;;;3.00;99.90;;;;;;5049689;28;20496;-71
2022/12/12 10:32:27;;;;;;;62.00;27.47;;;2.90;99.90;;;;;;5050471;28;20457;-71
2022/12/12 10:35:06;;;;;;;57.27;25.40;;;3.00;99.90;;;;;;5050198;28;21048;-69
2022/12/12 10:37:44;;;;;;;65.93;25.80;;;3.20;99.90;;;;;;5050040;28;20462;-69
2022/12/12 10:40:25;;;;;;;56.87;26.63;;;3.10;99.90;;;;;;5050597;28;20463;-69
2022/12/12 10:42:58;;;;;;;62.37;24.80;;;2.90;99.90;;;;;;5049531;28;20464;-68
2022/12/12 10:45:37;;;;;;;62.77;26.20;;;2.50;99.90;;;;;;5049461;28;20488;-69
2022/12/12 10:48:05;;;;;;;65.00;26.23;;;2.00;99.90;;;;;;5049542;28;20966;-70
2022/12/12 10:50:35;;;;;;;64.27;27.13;;;1.60;99.90;;;;;;5049051;28;20813;-70
2022/12/12 10:53:03;;;;;;;68.47;27.27;;;1.40;99.90;;;;;;5049837;28;20503;-69
2022/12/12 10:55:38;;;;;;;66.07;25.60;;;1.20;99.90;;;;;;5048826;28;20491;-70
2022/12/12 10:58:06;;;;;;;73.00;30.15;;;1.00;99.90;;;;;;5049080;28;20928;-69
2022/12/12 11:00:37;;;;;;;69.77;29.00;;;0.80;99.90;;;;;;5049895;28;20208;-70
2022/12/12 11:03:29;;;;;;;62.83;26.47;;;0.60;99.90;;;;;;5048201;28;21182;-70
2022/12/12 11:05:57;;;;;;;66.77;27.93;;;0.40;99.90;;;;;;5034646;28;20478;-69
2022/12/12 11:08:27;;;;;;;84.43;31.60;;;0.40;99.90;;;;;;5049210;28;20460;-70
2022/12/12 11:11:07;;;;;;;66.53;26.13;;;0.60;99.90;;;;;;5049672;28;21249;-69
2022/12/12 11:13:44;;;;;;;64.33;26.60;;;0.80;99.90;;;;;;5049388;28;20493;-68
2022/12/12 11:16:17;;;;;;;69.67;27.07;;;0.90;99.90;;;;;;5049623;28;20536;-68
2022/12/12 11:19:17;;;;;;;62.17;25.77;;;0.90;99.90;;;;;;5042908;28;20459;-68
2022/12/12 11:21:45;;;;;;;56.77;24.37;;;1.00;99.90;;;;;;5045151;28;20859;-68
2022/12/12 11:24:15;;;;;;;63.20;24.77;;;1.10;99.90;;;;;;5049764;28;20890;-69
2022/12/12 11:26:46;;;;;;;65.17;26.13;;;1.10;99.90;;;;;;5047961;28;20917;-69
2022/12/12 11:29:28;;;;;;;67.73;26.23;;;1.20;99.90;;;;;;5049476;28;20491;-69
2022/12/12 11:31:57;;;;;;;69.40;25.73;;;1.30;99.90;;;;;;5048955;28;20506;-70
2022/12/12 11:34:26;;;;;;;60.97;24.17;;;1.60;99.90;;;;;;5048963;28;21014;-70
2022/12/12 11:36:53;;;;;;;64.33;25.40;;;1.90;99.90;;;;;;5049520;28;20487;-71
2022/12/12 11:39:25;;;;;;;71.83;25.33;;;2.00;99.90;;;;;;5049495;28;20434;-71
2022/12/12 11:42:01;;;;;;;57.33;22.90;;;2.10;99.90;;;;;;5049261;28;20459;-69
2022/12/12 11:44:33;;;;;;;61.23;24.07;;;2.00;99.90;;;;;;5049341;28;21017;-71
2022/12/12 11:49:56;;;;;;;62.70;23.50;;;1.90;99.90;;;;;;5084183;28;20542;-77
2022/12/12 11:52:26;;;;;;;50.30;21.60;;;2.40;99.90;;;;;;5083794;28;21023;-87
2022/12/12 11:54:54;;;;;;;498.90;246.33;;;2.90;99.90;;;;;;5084330;28;20470;-76
2022/12/12 11:57:36;;;;;;;77.50;33.67;;;3.00;99.90;;;;;;5083169;28;21183;-71
2022/12/12 12:00:10;;;;;;;58.73;23.07;;;3.30;99.90;;;;;;5090197;28;20451;-70
2022/12/12 12:03:08;;;;;;;55.28;24.23;;;3.40;99.90;;;;;;5083394;28;20449;-74
2022/12/12 12:05:46;;;;;;;50.13;25.10;;;3.50;99.90;;;;;;5081963;28;20512;-71
2022/12/12 12:08:28;;;;;;;52.80;24.70;;;3.40;99.90;;;;;;5084419;28;20229;-71
2022/12/12 12:11:08;;;;;;;56.10;24.77;;;3.10;99.90;;;;;;5083397;28;20583;-70
2022/12/12 12:13:49;;;;;;;52.00;23.07;;;3.00;99.90;;;;;;5084044;28;20451;-70
2022/12/12 12:16:22;;;;;;;54.03;24.13;;;3.00;99.90;;;;;;5083046;28;20468;-70
2022/12/12 12:19:02;;;;;;;48.00;22.20;;;3.30;99.90;;;;;;5083666;28;20928;-70
2022/12/12 12:21:43;;;;;;;54.13;24.43;;;3.40;99.90;;;;;;5083856;28;20511;-70
2022/12/12 12:24:33;;;;;;;51.43;22.70;;;3.50;99.90;;;;;;5082619;28;20527;-69
2022/12/12 12:27:08;;;;;;;53.40;22.50;;;3.40;99.90;;;;;;5084201;28;20477;-70
2022/12/12 12:29:58;;;;;;;53.23;21.50;;;3.30;99.90;;;;;;5084217;28;20912;-69
2022/12/12 12:32:34;;;;;;;51.13;21.83;;;2.90;99.90;;;;;;5073889;28;20478;-68
2022/12/12 12:35:16;;;;;;;46.53;21.70;;;2.80;99.90;;;;;;5083464;28;20475;-69
2022/12/12 12:37:54;;;;;;;56.77;23.47;;;2.90;99.90;;;;;;5082745;28;20467;-69
2022/12/12 12:40:37;;;;;;;50.10;22.47;;;3.10;99.90;;;;;;5083520;28;20959;-68
2022/12/12 12:43:21;;;;;;;55.90;23.97;;;3.30;99.90;;;;;;5083055;28;20448;-68
2022/12/12 12:45:51;;;;;;;51.43;21.47;;;3.20;99.90;;;;;;5082830;28;20478;-68
2022/12/12 12:48:24;;;;;;;45.57;20.20;;;2.90;99.90;;;;;;5080802;28;20480;-68
2022/12/12 12:50:58;;;;;;;51.33;21.80;;;3.00;99.90;;;;;;5082081;28;20453;-68
2022/12/12 12:53:33;;;;;;;49.50;22.20;;;2.90;99.90;;;;;;5082401;28;20564;-68
2022/12/12 12:56:07;;;;;;;36.83;17.60;;;2.90;99.90;;;;;;5081853;28;20856;-75
2022/12/12 12:58:40;;;;;;;52.25;24.00;;;3.10;99.90;;;;;;5081841;28;20433;-69
2022/12/12 13:01:11;;;;;;;46.90;22.20;;;3.30;99.90;;;;;;5070958;28;20216;-69
2022/12/12 13:03:45;;;;;;;44.33;21.50;;;3.10;99.90;;;;;;5069636;28;20519;-69
2022/12/12 13:06:18;;;;;;;46.77;20.90;;;2.70;99.90;;;;;;5068207;28;20461;-69
2022/12/12 13:08:55;;;;;;;53.10;20.77;;;2.50;99.90;;;;;;5069934;28;20855;-69